createdAt,value
2018-04-15T00:00:31.584Z,981.1
2018-04-15T00:01:32.989Z,981.1
2018-04-15T00:02:34.366Z,981.1
2018-04-15T00:03:35.706Z,981.1
2018-04-15T00:04:37.088Z,981.1
2018-04-15T00:05:38.459Z,981.1
2018-04-15T00:06:39.852Z,981.1
2018-04-15T00:07:41.272Z,981.1
2018-04-15T00:08:42.655Z,981
2018-04-15T00:09:44.040Z,981
2018-04-15T00:10:45.439Z,981
2018-04-15T00:11:46.822Z,981
2018-04-15T00:12:48.640Z,980.9
2018-04-15T00:13:50.006Z,981
2018-04-15T00:14:51.405Z,981
2018-04-15T00:15:52.775Z,981
2018-04-15T00:16:54.178Z,981
2018-04-15T00:17:55.628Z,981
2018-04-15T00:18:57.067Z,981
2018-04-15T00:19:58.448Z,981
2018-04-15T00:20:59.862Z,980.7
2018-04-15T00:22:01.306Z,980.9
2018-04-15T00:23:02.768Z,980.9
2018-04-15T00:24:04.145Z,980.9
2018-04-15T00:25:05.562Z,980.7
2018-04-15T00:26:07.081Z,980.9
2018-04-15T00:27:08.472Z,980.9
2018-04-15T00:28:10.290Z,980.9
2018-04-15T00:29:11.676Z,980.8
2018-04-15T00:30:13.033Z,980.8
2018-04-15T00:31:14.403Z,980.8
2018-04-15T00:32:15.776Z,980.8
2018-04-15T00:33:17.233Z,980.7
2018-04-15T00:34:18.613Z,980.7
2018-04-15T00:35:19.948Z,980.8
2018-04-15T00:36:26.208Z,980.6
2018-04-15T00:37:27.693Z,980.8
2018-04-15T00:38:29.100Z,980.8
2018-04-15T00:39:30.490Z,980.8
2018-04-15T00:40:31.839Z,980.8
2018-04-15T00:41:33.158Z,980.7
2018-04-15T00:42:34.518Z,980.7
2018-04-15T00:43:35.929Z,980.7
2018-04-15T00:44:37.587Z,980.7
2018-04-15T00:45:39.001Z,980.6
2018-04-15T00:46:40.921Z,980.7
2018-04-15T00:47:42.353Z,980.5
2018-04-15T00:48:44.119Z,980.7
2018-04-15T00:49:45.485Z,980.7
2018-04-15T00:50:47.094Z,980.6
2018-04-15T00:51:48.483Z,980.7
2018-04-15T00:52:50.093Z,980.6
2018-04-15T00:53:51.511Z,980.6
2018-04-15T00:54:53.270Z,980.6
2018-04-15T00:55:54.645Z,980.7
2018-04-15T00:56:56.008Z,980.6
2018-04-15T00:57:57.395Z,980.6
2018-04-15T00:58:58.800Z,980.6
2018-04-15T01:00:00.150Z,980.6
2018-04-15T01:01:01.603Z,980.6
2018-04-15T01:02:03.008Z,980.6
2018-04-15T01:03:04.362Z,980.6
2018-04-15T01:04:05.780Z,980.4
2018-04-15T01:05:07.204Z,980.6
2018-04-15T01:06:08.603Z,980.6
2018-04-15T01:07:09.938Z,980.5
2018-04-15T01:08:11.315Z,980.6
2018-04-15T01:09:12.712Z,980.5
2018-04-15T01:10:14.083Z,980.5
2018-04-15T01:11:17.756Z,980.5
2018-04-15T01:12:19.103Z,980.5
2018-04-15T01:13:20.541Z,980.5
2018-04-15T01:14:21.903Z,980.5
2018-04-15T01:15:23.246Z,980.4
2018-04-15T01:16:24.589Z,980.5
2018-04-15T01:17:25.998Z,980.4
2018-04-15T01:18:27.353Z,980.4
2018-04-15T01:19:28.815Z,980.4
2018-04-15T01:20:30.192Z,980.5
2018-04-15T01:21:31.592Z,980.4
2018-04-15T01:22:32.922Z,980.4
2018-04-15T01:23:34.320Z,980.4
2018-04-15T01:24:35.708Z,980.4
2018-04-15T01:25:37.076Z,980.5
2018-04-15T01:26:38.468Z,980.4
2018-04-15T01:27:39.823Z,980.4
2018-04-15T01:28:41.252Z,980.4
2018-04-15T01:29:42.633Z,980.4
2018-04-15T01:30:44.191Z,980.4
2018-04-15T01:31:45.574Z,980.4
2018-04-15T01:32:46.953Z,980.3
2018-04-15T01:33:48.342Z,980.3
2018-04-15T01:34:49.805Z,980.3
2018-04-15T01:35:51.244Z,980.2
2018-04-15T01:36:52.605Z,980.3
2018-04-15T01:37:54.020Z,980.2
2018-04-15T01:38:55.383Z,980.2
2018-04-15T01:39:56.807Z,980.2
2018-04-15T01:40:58.170Z,980.2
2018-04-15T01:42:00.739Z,980.2
2018-04-15T01:43:02.217Z,980.2
2018-04-15T01:44:03.561Z,980.2
2018-04-15T01:45:05.029Z,980.2
2018-04-15T01:46:06.424Z,980.2
2018-04-15T01:47:07.964Z,980.1
2018-04-15T01:48:09.339Z,980.2
2018-04-15T01:49:11.131Z,980.2
2018-04-15T01:50:12.580Z,980.2
2018-04-15T01:51:14.330Z,980.2
2018-04-15T01:52:15.800Z,980.2
2018-04-15T01:53:17.606Z,980.1
2018-04-15T01:54:19.060Z,980.1
2018-04-15T01:55:20.790Z,980.1
2018-04-15T01:56:22.191Z,980.1
2018-04-15T01:57:23.988Z,980.1
2018-04-15T01:58:25.472Z,980.1
2018-04-15T01:59:26.835Z,980.1
2018-04-15T02:00:28.243Z,980.1
2018-04-15T02:01:29.611Z,980
2018-04-15T02:02:31.027Z,980.1
2018-04-15T02:03:32.420Z,980.1
2018-04-15T02:04:33.754Z,980.1
2018-04-15T02:05:35.354Z,980.1
2018-04-15T02:06:36.675Z,980.1
2018-04-15T02:07:38.057Z,980.1
2018-04-15T02:08:39.413Z,980.1
2018-04-15T02:09:40.809Z,980.1
2018-04-15T02:10:42.224Z,980.1
2018-04-15T02:11:43.595Z,980.1
2018-04-15T02:12:45.392Z,980.1
2018-04-15T02:13:46.788Z,980
2018-04-15T02:14:48.191Z,980.1
2018-04-15T02:15:49.558Z,980.1
2018-04-15T02:16:50.923Z,980
2018-04-15T02:17:52.289Z,980
2018-04-15T02:18:53.628Z,980
2018-04-15T02:19:54.982Z,980
2018-04-15T02:20:56.429Z,979.9
2018-04-15T02:21:57.796Z,980
2018-04-15T02:22:59.442Z,980
2018-04-15T02:24:00.831Z,980
2018-04-15T02:25:04.719Z,980
2018-04-15T02:26:06.164Z,980
2018-04-15T02:27:07.556Z,979.9
2018-04-15T02:28:09.946Z,979.9
2018-04-15T02:29:11.370Z,979.9
2018-04-15T02:30:12.757Z,979.9
2018-04-15T02:31:14.933Z,979.7
2018-04-15T02:32:16.318Z,979.9
2018-04-15T02:33:17.673Z,979.9
2018-04-15T02:34:19.031Z,980
2018-04-15T02:35:20.447Z,979.9
2018-04-15T02:36:21.932Z,979.9
2018-04-15T02:37:23.315Z,979.9
2018-04-15T02:38:24.740Z,979.9
2018-04-15T02:39:26.123Z,979.9
2018-04-15T02:40:27.519Z,979.9
2018-04-15T02:41:28.913Z,979.9
2018-04-15T02:42:30.755Z,979.9
2018-04-15T02:43:32.119Z,979.9
2018-04-15T02:44:33.449Z,979.8
2018-04-15T02:45:34.789Z,979.8
2018-04-15T02:46:36.179Z,979.8
2018-04-15T02:47:37.539Z,979.7
2018-04-15T02:48:38.846Z,979.8
2018-04-15T02:49:40.328Z,979.8
2018-04-15T02:50:41.701Z,979.8
2018-04-15T02:51:43.535Z,979.6
2018-04-15T02:52:45.006Z,979.7
2018-04-15T02:53:46.762Z,979.7
2018-04-15T02:54:48.140Z,979.8
2018-04-15T02:55:49.849Z,979.6
2018-04-15T02:56:51.284Z,979.8
2018-04-15T02:57:52.925Z,979.6
2018-04-15T02:58:54.313Z,979.7
2018-04-15T02:59:56.078Z,979.5
2018-04-15T03:00:57.434Z,979.7
2018-04-15T03:01:59.456Z,979.7
2018-04-15T03:03:00.941Z,979.6
2018-04-15T03:04:02.461Z,979.6
2018-04-15T03:05:03.841Z,979.6
2018-04-15T03:06:05.246Z,979.6
2018-04-15T03:07:06.628Z,979.6
2018-04-15T03:08:07.972Z,979.6
2018-04-15T03:09:09.309Z,979.6
2018-04-15T03:10:10.702Z,979.4
2018-04-15T03:11:12.105Z,979.6
2018-04-15T03:12:13.527Z,979.6
2018-04-15T03:13:15.287Z,979.6
2018-04-15T03:14:16.661Z,979.6
2018-04-15T03:15:18.023Z,979.5
2018-04-15T03:16:19.423Z,979.5
2018-04-15T03:17:20.892Z,979.5
2018-04-15T03:18:22.257Z,979.5
2018-04-15T03:19:23.627Z,979.5
2018-04-15T03:20:24.976Z,979.5
2018-04-15T03:21:26.344Z,979.5
2018-04-15T03:22:27.731Z,979.5
2018-04-15T03:23:29.092Z,979.5
2018-04-15T03:24:30.457Z,979.5
2018-04-15T03:25:31.808Z,979.4
2018-04-15T03:26:33.177Z,979.4
2018-04-15T03:27:34.600Z,979.4
2018-04-15T03:28:35.951Z,979.4
2018-04-15T03:29:37.351Z,979.4
2018-04-15T03:30:38.724Z,979.4
2018-04-15T03:31:40.111Z,979.4
2018-04-15T03:32:41.585Z,979.4
2018-04-15T03:33:43.004Z,979.4
2018-04-15T03:34:44.369Z,979.3
2018-04-15T03:35:45.844Z,979.4
2018-04-15T03:36:47.301Z,979.4
2018-04-15T03:37:48.743Z,979.4
2018-04-15T03:38:50.234Z,979.4
2018-04-15T03:39:51.631Z,979.4
2018-04-15T03:40:52.994Z,979.4
2018-04-15T03:41:54.390Z,979.5
2018-04-15T03:42:55.864Z,979.4
2018-04-15T03:43:57.255Z,979.4
2018-04-15T03:44:58.680Z,979.4
2018-04-15T03:46:00.043Z,979.4
2018-04-15T03:47:04.055Z,979.4
2018-04-15T03:48:05.473Z,979.3
2018-04-15T03:49:06.815Z,979.4
2018-04-15T03:50:08.184Z,979.4
2018-04-15T03:51:09.546Z,979.4
2018-04-15T03:52:10.944Z,979.3
2018-04-15T03:53:12.395Z,979.3
2018-04-15T03:54:13.848Z,979.3
2018-04-15T03:55:15.220Z,979.4
2018-04-15T03:56:16.868Z,979.4
2018-04-15T03:57:18.240Z,979.4
2018-04-15T03:58:20.587Z,979.4
2018-04-15T03:59:21.992Z,979.4
2018-04-15T04:00:23.649Z,979.4
2018-04-15T04:01:25.010Z,979.4
2018-04-15T04:02:26.648Z,979.2
2018-04-15T04:03:28.212Z,979.5
2018-04-15T04:04:29.970Z,979.5
2018-04-15T04:05:31.380Z,979.4
2018-04-15T04:06:33.251Z,979.4
2018-04-15T04:07:34.580Z,979.5
2018-04-15T04:08:36.065Z,979.5
2018-04-15T04:09:37.399Z,979.5
2018-04-15T04:10:39.328Z,979.5
2018-04-15T04:11:40.764Z,979.5
2018-04-15T04:12:42.144Z,979.5
2018-04-15T04:13:43.580Z,979.5
2018-04-15T04:14:45.004Z,979.4
2018-04-15T04:15:46.357Z,979.5
2018-04-15T04:16:47.763Z,979.5
2018-04-15T04:17:49.139Z,979.5
2018-04-15T04:18:50.581Z,979.5
2018-04-15T04:19:52.408Z,979.5
2018-04-15T04:20:53.764Z,979.4
2018-04-15T04:21:55.102Z,979.4
2018-04-15T04:22:56.504Z,979.5
2018-04-15T04:23:57.944Z,979.5
2018-04-15T04:24:59.309Z,979.5
2018-04-15T04:26:00.836Z,979.5
2018-04-15T04:27:02.222Z,979.5
2018-04-15T04:28:03.915Z,979.5
2018-04-15T04:29:05.303Z,979.5
2018-04-15T04:30:06.708Z,979.1
2018-04-15T04:31:08.133Z,979.5
2018-04-15T04:32:09.548Z,979.4
2018-04-15T04:33:11.010Z,979.4
2018-04-15T04:34:12.518Z,979.5
2018-04-15T04:35:13.883Z,979.4
2018-04-15T04:36:15.291Z,979.4
2018-04-15T04:37:16.783Z,979.4
2018-04-15T04:38:18.172Z,979.5
2018-04-15T04:39:19.624Z,979.4
2018-04-15T04:40:20.984Z,979.5
2018-04-15T04:41:22.326Z,979.5
2018-04-15T04:42:23.671Z,979.4
2018-04-15T04:43:25.116Z,979.4
2018-04-15T04:44:26.504Z,979.5
2018-04-15T04:45:27.850Z,979.5
2018-04-15T04:46:29.298Z,979.5
2018-04-15T04:47:30.664Z,979.5
2018-04-15T04:48:32.060Z,979.5
2018-04-15T04:49:33.469Z,979.5
2018-04-15T04:50:34.799Z,979.4
2018-04-15T04:51:36.173Z,979.5
2018-04-15T04:52:37.546Z,979.5
2018-04-15T04:53:38.901Z,979.5
2018-04-15T04:54:40.496Z,979.5
2018-04-15T04:55:41.901Z,979.5
2018-04-15T04:56:43.323Z,979.4
2018-04-15T04:57:44.716Z,979.4
2018-04-15T04:58:46.474Z,979.2
2018-04-15T04:59:47.912Z,979.4
2018-04-15T05:00:49.690Z,979.2
2018-04-15T05:01:51.070Z,979.4
2018-04-15T05:02:52.636Z,979.4
2018-04-15T05:03:54.020Z,979.3
2018-04-15T05:04:55.736Z,979.3
2018-04-15T05:05:57.103Z,979.3
2018-04-15T05:06:59.663Z,979.3
2018-04-15T05:08:01.135Z,979.3
2018-04-15T05:09:02.653Z,979.3
2018-04-15T05:10:04.044Z,979.3
2018-04-15T05:11:05.441Z,979.3
2018-04-15T05:12:06.796Z,979.3
2018-04-15T05:13:08.174Z,979.3
2018-04-15T05:14:09.667Z,979.3
2018-04-15T05:15:11.075Z,979.3
2018-04-15T05:16:12.414Z,979.3
2018-04-15T05:17:13.823Z,979.1
2018-04-15T05:18:15.200Z,979.3
2018-04-15T05:19:16.551Z,979.3
2018-04-15T05:20:18.039Z,979.3
2018-04-15T05:21:19.438Z,979.3
2018-04-15T05:22:20.778Z,979.3
2018-04-15T05:23:22.207Z,979.3
2018-04-15T05:24:23.551Z,979.3
2018-04-15T05:25:24.952Z,979.3
2018-04-15T05:26:26.693Z,979.3
2018-04-15T05:27:28.051Z,979.3
2018-04-15T05:28:29.444Z,979.3
2018-04-15T05:29:31.009Z,979.4
2018-04-15T05:30:32.488Z,979.3
2018-04-15T05:31:33.920Z,979.3
2018-04-15T05:32:35.287Z,979.3
2018-04-15T05:33:36.728Z,979.3
2018-04-15T05:34:38.088Z,979.4
2018-04-15T05:35:39.547Z,979.4
2018-04-15T05:36:40.889Z,979.4
2018-04-15T05:37:42.337Z,979.4
2018-04-15T05:38:45.813Z,979.4
2018-04-15T05:39:47.180Z,979.5
2018-04-15T05:40:48.621Z,979.4
2018-04-15T05:41:50.233Z,979.5
2018-04-15T05:42:51.690Z,979.5
2018-04-15T05:43:53.198Z,979.5
2018-04-15T05:44:54.678Z,979.5
2018-04-15T05:45:56.082Z,979.4
2018-04-15T05:46:57.484Z,979.4
2018-04-15T05:47:58.900Z,979.4
2018-04-15T05:49:00.237Z,979.5
2018-04-15T05:50:01.733Z,979.4
2018-04-15T05:51:03.222Z,979.5
2018-04-15T05:52:04.591Z,979.6
2018-04-15T05:53:05.990Z,979.5
2018-04-15T05:54:07.387Z,979.5
2018-04-15T05:55:08.754Z,979.3
2018-04-15T05:56:10.249Z,979.5
2018-04-15T05:57:11.804Z,979.5
2018-04-15T05:58:13.199Z,979.5
2018-04-15T05:59:14.541Z,979.5
2018-04-15T06:00:15.937Z,979.5
2018-04-15T06:01:18.049Z,979.3
2018-04-15T06:02:20.554Z,979.6
2018-04-15T06:03:22.777Z,979.5
2018-04-15T06:04:24.188Z,979.5
2018-04-15T06:05:26.189Z,979.3
2018-04-15T06:06:27.633Z,979.6
2018-04-15T06:07:29.455Z,979.5
2018-04-15T06:08:30.817Z,979.6
2018-04-15T06:09:32.860Z,979.5
2018-04-15T06:10:34.229Z,979.5
2018-04-15T06:11:36.354Z,979.5
2018-04-15T06:12:37.788Z,979.6
2018-04-15T06:13:40.863Z,979.5
2018-04-15T06:14:45.166Z,979.6
2018-04-15T06:15:55.209Z,979.5
2018-04-15T06:16:56.793Z,979.4
2018-04-15T06:17:58.801Z,979.2
2018-04-15T06:19:00.273Z,979.6
2018-04-15T06:20:02.089Z,979.5
2018-04-15T06:21:03.495Z,979.5
2018-04-15T06:22:06.113Z,979.5
2018-04-15T06:23:07.468Z,979.5
2018-04-15T06:24:09.659Z,979.5
2018-04-15T06:25:11.014Z,979.5
2018-04-15T06:26:13.169Z,979.5
2018-04-15T06:27:14.603Z,979.5
2018-04-15T06:28:16.385Z,979.4
2018-04-15T06:29:17.857Z,979.4
2018-04-15T06:30:19.780Z,979.4
2018-04-15T06:31:21.219Z,979.4
2018-04-15T06:32:23.300Z,979.1
2018-04-15T06:33:24.659Z,979.5
2018-04-15T06:34:26.894Z,979.4
2018-04-15T06:35:28.286Z,979.5
2018-04-15T06:36:29.809Z,979.4
2018-04-15T06:37:31.240Z,979.4
2018-04-15T06:38:32.727Z,979.4
2018-04-15T06:39:34.117Z,979.5
2018-04-15T06:40:35.484Z,979.4
2018-04-15T06:41:36.857Z,979.5
2018-04-15T06:42:38.379Z,979.4
2018-04-15T06:43:39.765Z,979.5
2018-04-15T06:44:41.208Z,979.5
2018-04-15T06:45:42.674Z,979.5
2018-04-15T06:46:44.102Z,979.5
2018-04-15T06:47:45.529Z,979.5
2018-04-15T06:48:46.914Z,979.5
2018-04-15T06:49:48.293Z,979.5
2018-04-15T06:50:49.668Z,979.5
2018-04-15T06:51:51.087Z,979.5
2018-04-15T06:52:52.577Z,979.5
2018-04-15T06:53:53.979Z,979.6
2018-04-15T06:54:55.404Z,979.5
2018-04-15T06:55:56.804Z,979.6
2018-04-15T06:56:58.201Z,979.5
2018-04-15T06:57:59.679Z,979.5
2018-04-15T06:59:01.035Z,979.6
2018-04-15T07:00:02.526Z,979.6
2018-04-15T07:01:03.970Z,979.6
2018-04-15T07:02:05.384Z,979.6
2018-04-15T07:03:06.788Z,979.6
2018-04-15T07:04:08.215Z,979.6
2018-04-15T07:05:09.753Z,979.5
2018-04-15T07:06:11.120Z,979.6
2018-04-15T07:07:12.640Z,979.6
2018-04-15T07:08:14.072Z,979.7
2018-04-15T07:09:15.594Z,979.8
2018-04-15T07:10:16.997Z,979.8
2018-04-15T07:11:18.412Z,979.9
2018-04-15T07:12:19.843Z,979.9
2018-04-15T07:13:21.315Z,979.8
2018-04-15T07:14:22.879Z,979.8
2018-04-15T07:15:24.260Z,979.9
2018-04-15T07:16:27.449Z,979.9
2018-04-15T07:17:28.945Z,979.9
2018-04-15T07:18:30.384Z,979.9
2018-04-15T07:19:31.793Z,979.9
2018-04-15T07:20:33.212Z,979.9
2018-04-15T07:21:34.837Z,979.8
2018-04-15T07:22:37.129Z,979.9
2018-04-15T07:23:38.880Z,979.9
2018-04-15T07:24:40.612Z,979.7
2018-04-15T07:25:42.126Z,979.9
2018-04-15T07:26:43.892Z,979.9
2018-04-15T07:27:45.368Z,979.9
2018-04-15T07:28:47.651Z,979.7
2018-04-15T07:29:49.085Z,980.1
2018-04-15T07:30:50.887Z,979.7
2018-04-15T07:31:52.443Z,979.9
2018-04-15T07:32:55.152Z,979.9
2018-04-15T07:33:56.600Z,980.1
2018-04-15T07:34:58.828Z,979.9
2018-04-15T07:36:00.260Z,980.1
2018-04-15T07:37:06.664Z,980.1
2018-04-15T07:38:08.151Z,980
2018-04-15T07:39:16.148Z,980
2018-04-15T07:40:17.561Z,980
2018-04-15T07:41:19.082Z,980
2018-04-15T07:42:20.622Z,980.1
2018-04-15T07:43:22.845Z,980.1
2018-04-15T07:44:24.375Z,980.1
2018-04-15T07:45:27.240Z,980.1
2018-04-15T07:46:28.657Z,980.1
2018-04-15T07:47:31.746Z,980.2
2018-04-15T07:48:34.602Z,980
2018-04-15T07:49:36.811Z,980
2018-04-15T07:50:38.321Z,980.1
2018-04-15T07:51:40.191Z,980.1
2018-04-15T07:52:41.848Z,980.1
2018-04-15T07:53:44.297Z,980.2
2018-04-15T07:54:45.931Z,980.2
2018-04-15T07:55:48.702Z,980.1
2018-04-15T07:56:50.416Z,980.1
2018-04-15T07:57:52.832Z,980
2018-04-15T07:58:54.353Z,980.1
2018-04-15T08:00:02.104Z,980.2
2018-04-15T08:01:03.632Z,980.1
2018-04-15T08:02:06.149Z,979.9
2018-04-15T08:03:07.629Z,980.2
2018-04-15T08:04:09.798Z,980.2
2018-04-15T08:05:11.477Z,980.1
2018-04-15T08:06:16.072Z,980.1
2018-04-15T08:07:17.640Z,980.2
2018-04-15T08:08:19.932Z,980.3
2018-04-15T08:09:21.687Z,980.2
2018-04-15T08:10:24.017Z,980.3
2018-04-15T08:11:25.513Z,980.3
2018-04-15T08:12:35.198Z,980.4
2018-04-15T08:13:36.533Z,980.4
2018-04-15T08:14:38.044Z,980.4
2018-04-15T08:15:39.483Z,980.4
2018-04-15T08:16:41.453Z,980.4
2018-04-15T08:17:43.113Z,980.4
2018-04-15T08:18:45.261Z,980.3
2018-04-15T08:19:46.657Z,980.4
2018-04-15T08:20:51.247Z,980.3
2018-04-15T08:21:52.728Z,980.3
2018-04-15T08:22:55.059Z,980.4
2018-04-15T08:23:56.655Z,980.4
2018-04-15T08:24:58.641Z,980.4
2018-04-15T08:26:01.500Z,980.2
2018-04-15T08:27:06.085Z,980.2
2018-04-15T08:28:09.173Z,980.3
2018-04-15T08:29:11.492Z,980.3
2018-04-15T08:30:12.936Z,980.3
2018-04-15T08:31:15.157Z,980.3
2018-04-15T08:32:16.688Z,980.3
2018-04-15T08:33:18.436Z,980.1
2018-04-15T08:34:20.025Z,980.3
2018-04-15T08:35:21.956Z,980.3
2018-04-15T08:36:23.522Z,980.3
2018-04-15T08:37:26.850Z,980.3
2018-04-15T08:38:28.671Z,980.3
2018-04-15T08:39:33.108Z,980.2
2018-04-15T08:40:34.512Z,980.3
2018-04-15T08:41:36.351Z,980.1
2018-04-15T08:42:37.740Z,980.3
2018-04-15T08:43:39.567Z,980.1
2018-04-15T08:44:41.305Z,980.2
2018-04-15T08:45:44.210Z,980.2
2018-04-15T08:46:45.782Z,980.4
2018-04-15T08:47:47.487Z,980.3
2018-04-15T08:48:49.045Z,980.3
2018-04-15T08:49:50.446Z,980.3
2018-04-15T08:50:51.874Z,980.2
2018-04-15T08:51:53.540Z,980.3
2018-04-15T08:52:55.065Z,980.3
2018-04-15T08:53:56.607Z,980.3
2018-04-15T08:54:58.147Z,980.3
2018-04-15T08:55:59.553Z,980.2
2018-04-15T08:57:00.992Z,980.1
2018-04-15T08:58:02.343Z,980.1
2018-04-15T08:59:03.844Z,980.3
2018-04-15T09:00:05.280Z,980.3
2018-04-15T09:01:06.745Z,980.2
2018-04-15T09:02:08.289Z,980.3
2018-04-15T09:03:09.951Z,980.3
2018-04-15T09:04:11.377Z,980.4
2018-04-15T09:05:12.788Z,980.3
2018-04-15T09:06:20.383Z,980.2
2018-04-15T09:07:21.954Z,980.2
2018-04-15T09:08:23.517Z,980.2
2018-04-15T09:09:25.023Z,980.2
2018-04-15T09:10:26.414Z,980.3
2018-04-15T09:11:31.339Z,980.1
2018-04-15T09:12:32.942Z,980.2
2018-04-15T09:13:34.410Z,980.2
2018-04-15T09:14:35.832Z,980.2
2018-04-15T09:15:37.379Z,980.1
2018-04-15T09:16:38.860Z,980.3
2018-04-15T09:17:40.302Z,980.2
2018-04-15T09:18:41.702Z,980.2
2018-04-15T09:19:43.393Z,980.2
2018-04-15T09:20:44.948Z,980.3
2018-04-15T09:21:46.380Z,980.3
2018-04-15T09:22:47.895Z,980.2
2018-04-15T09:23:49.908Z,980.1
2018-04-15T09:24:53.307Z,980.2
2018-04-15T09:25:55.293Z,980.2
2018-04-15T09:27:01.877Z,980
2018-04-15T09:28:05.580Z,980.3
2018-04-15T09:29:07.388Z,980.2
2018-04-15T09:30:09.256Z,980.2
2018-04-15T09:31:11.418Z,980.2
2018-04-15T09:32:13.070Z,980.2
2018-04-15T09:33:14.776Z,980.1
2018-04-15T09:34:16.297Z,980.1
2018-04-15T09:35:21.122Z,980.1
2018-04-15T09:36:23.888Z,980.1
2018-04-15T09:37:25.402Z,980.1
2018-04-15T09:38:27.017Z,980
2018-04-15T09:39:28.521Z,980
2018-04-15T09:40:30.073Z,980
2018-04-15T09:41:31.595Z,980
2018-04-15T09:42:33.151Z,980
2018-04-15T09:43:34.899Z,980
2018-04-15T09:44:36.547Z,980.1
2018-04-15T09:45:38.112Z,980
2018-04-15T09:46:39.647Z,979.9
2018-04-15T09:47:41.100Z,979.9
2018-04-15T09:48:42.703Z,979.9
2018-04-15T09:49:44.343Z,979.9
2018-04-15T09:50:45.806Z,979.9
2018-04-15T09:51:47.373Z,979.6
2018-04-15T09:52:48.900Z,979.9
2018-04-15T09:53:50.562Z,980
2018-04-15T09:54:52.121Z,979.9
2018-04-15T09:55:55.195Z,979.9
2018-04-15T09:56:56.790Z,979.9
2018-04-15T09:57:58.278Z,979.8
2018-04-15T09:59:02.384Z,979.6
2018-04-15T10:00:04.110Z,979.9
2018-04-15T10:01:05.568Z,979.9
2018-04-15T10:02:07.169Z,979.8
2018-04-15T10:03:08.742Z,979.8
2018-04-15T10:04:10.464Z,979.8
2018-04-15T10:05:12.065Z,979.8
2018-04-15T10:06:13.989Z,979.8
2018-04-15T10:07:15.542Z,979.8
2018-04-15T10:08:17.048Z,979.8
2018-04-15T10:09:18.606Z,979.7
2018-04-15T10:10:20.169Z,980
2018-04-15T10:11:21.762Z,979.9
2018-04-15T10:12:23.567Z,979.8
2018-04-15T10:13:26.013Z,979.6
2018-04-15T10:14:27.751Z,980.1
2018-04-15T10:15:29.300Z,979.8
2018-04-15T10:16:30.864Z,979.5
2018-04-15T10:17:35.099Z,979.8
2018-04-15T10:18:36.649Z,979.8
2018-04-15T10:19:38.542Z,979.9
2018-04-15T10:20:40.063Z,979.9
2018-04-15T10:21:42.124Z,980
2018-04-15T10:22:48.934Z,979.8
2018-04-15T10:23:50.594Z,979.6
2018-04-15T10:24:52.186Z,979.9
2018-04-15T10:25:53.970Z,979.8
2018-04-15T10:26:55.780Z,979.9
2018-04-15T10:27:57.530Z,979.8
2018-04-15T10:28:59.278Z,979.7
2018-04-15T10:30:01.153Z,979.6
2018-04-15T10:31:02.674Z,979.7
2018-04-15T10:32:09.463Z,979.7
2018-04-15T10:33:10.974Z,979.6
2018-04-15T10:34:12.648Z,979.6
2018-04-15T10:35:14.311Z,979.8
2018-04-15T10:36:17.251Z,979.6
2018-04-15T10:37:18.788Z,979.7
2018-04-15T10:38:22.541Z,979.6
2018-04-15T10:39:24.082Z,979.6
2018-04-15T10:40:25.988Z,979.5
2018-04-15T10:41:27.518Z,979.8
2018-04-15T10:42:29.507Z,979.7
2018-04-15T10:43:31.068Z,979.7
2018-04-15T10:44:32.806Z,979.7
2018-04-15T10:45:34.404Z,979.6
2018-04-15T10:46:36.081Z,979.5
2018-04-15T10:47:37.694Z,979.6
2018-04-15T10:48:39.434Z,979.4
2018-04-15T10:49:41.132Z,979.4
2018-04-15T10:50:42.867Z,979.5
2018-04-15T10:51:44.715Z,979.7
2018-04-15T10:52:46.446Z,979.7
2018-04-15T10:53:48.147Z,979.6
2018-04-15T10:54:49.691Z,979.6
2018-04-15T10:55:51.266Z,979.6
2018-04-15T10:56:52.840Z,979.6
2018-04-15T10:57:54.433Z,979.6
2018-04-15T10:58:56.110Z,979.5
2018-04-15T10:59:57.854Z,979.7
2018-04-15T11:00:59.403Z,979.5
2018-04-15T11:02:00.946Z,979.7
2018-04-15T11:03:02.491Z,979.6
2018-04-15T11:04:04.135Z,979.6
2018-04-15T11:05:05.813Z,979.6
2018-04-15T11:06:07.468Z,979.6
2018-04-15T11:07:09.069Z,979.6
2018-04-15T11:08:10.569Z,979.6
2018-04-15T11:09:12.099Z,979.5
2018-04-15T11:10:13.661Z,979.5
2018-04-15T11:11:15.296Z,979.5
2018-04-15T11:12:16.903Z,979.3
2018-04-15T11:13:18.521Z,979.5
2018-04-15T11:14:20.319Z,979.5
2018-04-15T11:15:21.857Z,979.3
2018-04-15T11:16:23.486Z,979.5
2018-04-15T11:17:25.098Z,979.5
2018-04-15T11:18:29.716Z,979.4
2018-04-15T11:19:31.260Z,979.4
2018-04-15T11:20:32.716Z,979.4
2018-04-15T11:21:36.118Z,979.4
2018-04-15T11:22:37.667Z,979.4
2018-04-15T11:23:39.237Z,979.4
2018-04-15T11:24:40.763Z,979.3
2018-04-15T11:25:42.345Z,979.3
2018-04-15T11:26:44.019Z,979.3
2018-04-15T11:27:45.698Z,979.3
2018-04-15T11:28:47.742Z,979.1
2018-04-15T11:29:49.410Z,979.2
2018-04-15T11:30:50.964Z,979.1
2018-04-15T11:31:52.563Z,979.2
2018-04-15T11:32:54.275Z,979.3
2018-04-15T11:33:57.276Z,979.2
2018-04-15T11:34:58.769Z,979.2
2018-04-15T11:36:00.351Z,979.2
2018-04-15T11:37:02.952Z,979.1
2018-04-15T11:38:04.603Z,979.2
2018-04-15T11:39:06.171Z,979.3
2018-04-15T11:40:07.726Z,979.3
2018-04-15T11:41:09.316Z,979.3
2018-04-15T11:42:10.983Z,979.1
2018-04-15T11:43:12.509Z,979.3
2018-04-15T11:44:14.031Z,979.2
2018-04-15T11:45:15.597Z,979.3
2018-04-15T11:46:17.090Z,979.3
2018-04-15T11:47:18.768Z,979.2
2018-04-15T11:48:20.400Z,979.2
2018-04-15T11:49:22.135Z,979.1
2018-04-15T11:50:24.022Z,979.2
2018-04-15T11:51:25.584Z,979.2
2018-04-15T11:52:27.147Z,979.2
2018-04-15T11:53:28.631Z,979.2
2018-04-15T11:54:30.159Z,979.2
2018-04-15T11:55:31.687Z,978.9
2018-04-15T11:56:33.236Z,978.9
2018-04-15T11:57:34.896Z,979.1
2018-04-15T11:58:36.389Z,979.1
2018-04-15T11:59:38.116Z,979.1
2018-04-15T12:00:39.769Z,979.1
2018-04-15T12:01:43.652Z,979.1
2018-04-15T12:02:45.368Z,979.2
2018-04-15T12:03:47.056Z,979.1
2018-04-15T12:04:48.679Z,978.9
2018-04-15T12:05:50.698Z,979
2018-04-15T12:06:52.286Z,978.8
2018-04-15T12:07:54.243Z,978.8
2018-04-15T12:08:55.736Z,979
2018-04-15T12:09:58.688Z,979
2018-04-15T12:11:00.294Z,978.9
2018-04-15T12:12:02.304Z,978.7
2018-04-15T12:13:06.121Z,978.7
2018-04-15T12:14:07.820Z,978.7
2018-04-15T12:15:17.326Z,978.9
2018-04-15T12:16:19.073Z,978.8
2018-04-15T12:17:20.703Z,978.8
2018-04-15T12:18:22.592Z,978.8
2018-04-15T12:19:26.833Z,978.7
2018-04-15T12:20:28.407Z,978.7
2018-04-15T12:21:30.053Z,978.7
2018-04-15T12:22:33.340Z,978.7
2018-04-15T12:23:35.127Z,978.5
2018-04-15T12:24:36.938Z,978.6
2018-04-15T12:25:38.594Z,978.6
2018-04-15T12:26:40.353Z,978.6
2018-04-15T12:27:41.908Z,978.6
2018-04-15T12:28:44.888Z,978.5
2018-04-15T12:29:46.647Z,978.5
2018-04-15T12:30:48.404Z,978.5
2018-04-15T12:31:49.996Z,978.5
2018-04-15T12:32:52.379Z,978.5
2018-04-15T12:33:55.227Z,978.5
2018-04-15T12:34:57.522Z,978.5
2018-04-15T12:35:59.152Z,978.5
2018-04-15T12:37:04.240Z,978.5
2018-04-15T12:38:05.829Z,978.4
2018-04-15T12:39:08.208Z,978.2
2018-04-15T12:40:09.780Z,978.3
2018-04-15T12:41:13.325Z,978.3
2018-04-15T12:42:14.936Z,978.2
2018-04-15T12:43:17.129Z,978.1
2018-04-15T12:44:18.789Z,978.2
2018-04-15T12:45:26.293Z,978.2
2018-04-15T12:46:27.855Z,978.2
2018-04-15T12:47:29.634Z,978.2
2018-04-15T12:48:31.570Z,978.1
2018-04-15T12:49:33.426Z,978.2
2018-04-15T12:50:35.028Z,978.1
2018-04-15T12:51:38.258Z,978.1
2018-04-15T12:52:41.843Z,978.1
2018-04-15T12:53:43.701Z,978.1
2018-04-15T12:54:45.647Z,977.9
2018-04-15T12:55:47.436Z,978.1
2018-04-15T12:56:49.028Z,978
2018-04-15T12:57:50.833Z,978
2018-04-15T12:58:52.510Z,978
2018-04-15T12:59:54.625Z,978
2018-04-15T13:00:56.375Z,977.9
2018-04-15T13:01:58.320Z,977.9
2018-04-15T13:03:00.045Z,977.9
2018-04-15T13:04:01.688Z,977.9
2018-04-15T13:05:06.652Z,977.9
2018-04-15T13:06:08.312Z,977.9
2018-04-15T13:07:09.862Z,977.7
2018-04-15T13:08:11.451Z,977.8
2018-04-15T13:09:14.006Z,977.7
2018-04-15T13:10:15.640Z,977.8
2018-04-15T13:11:17.305Z,977.8
2018-04-15T13:12:18.960Z,977.8
2018-04-15T13:13:20.554Z,977.8
2018-04-15T13:14:22.136Z,977.9
2018-04-15T13:15:23.781Z,977.9
2018-04-15T13:16:25.432Z,977.8
2018-04-15T13:17:27.165Z,977.7
2018-04-15T13:18:28.771Z,977.7